Time;durP1;ratioP1;P1;durP2;ratioP2;P2;SDS_P1;SDS_P2;PMS_P1;PMS_P2;Temp;Humidity;BMP_temperature;BMP_pressure;BME280_temperature;BME280_humidity;BME280_pressure;Samples;Min_cycle;Max_cycle;Signal;HPM_P1;HPM_P2
2019/07/18 00:00:58;;;;;;;10.6;9.499999;;;;;;;16.17;63.74219;94857.72;;;;
2019/07/18 00:01:59;;;;;;;10.6;9.499999;;;;;;;16.17;63.74219;94857.72;;;;
2019/07/18 00:03:00;;;;;;;10.6;9.499999;;;;;;;16.17;63.74219;94857.72;;;;
2019/07/18 00:04:01;;;;;;;10.6;9.499999;;;;;;;16.17;63.74219;94857.72;;;;
2019/07/18 00:05:02;;;;;;;10.6;9.499999;;;;;;;16.17;63.74219;94857.72;;;;
2019/07/18 00:06:03;;;;;;;10.6;9.499999;;;;;;;16.17;63.74219;94857.72;;;;
2019/07/18 00:07:05;;;;;;;10.6;9.499999;;;;;;;16.17;63.74219;94857.72;;;;
2019/07/18 00:08:06;;;;;;;10.6;9.499999;;;;;;;16.17;63.74219;94857.72;;;;
2019/07/18 00:09:07;;;;;;;10.6;9.499999;;;;;;;16.17;63.74219;94857.72;;;;
2019/07/18 00:10:08;;;;;;;10.6;9.499999;;;;;;;16.17;63.74219;94857.72;;;;
2019/07/18 00:11:09;;;;;;;10.75;9.550001;;;;;;;16;65.0752;94860.38;;;;
2019/07/18 00:12:10;;;;;;;10.75;9.550001;;;;;;;16;65.0752;94860.38;;;;
2019/07/18 00:13:11;;;;;;;10.75;9.550001;;;;;;;16;65.0752;94860.38;;;;
2019/07/18 00:14:12;;;;;;;10.75;9.550001;;;;;;;16;65.0752;94860.38;;;;
2019/07/18 00:15:14;;;;;;;10.75;9.550001;;;;;;;16;65.0752;94860.38;;;;
2019/07/18 00:16:15;;;;;;;10.75;9.550001;;;;;;;16;65.0752;94860.38;;;;
2019/07/18 00:17:16;;;;;;;10.75;9.550001;;;;;;;16;65.0752;94860.38;;;;
2019/07/18 00:18:17;;;;;;;10.75;9.550001;;;;;;;16;65.0752;94860.38;;;;
2019/07/18 00:19:19;;;;;;;10.75;9.550001;;;;;;;16;65.0752;94860.38;;;;
2019/07/18 00:20:20;;;;;;;10.75;9.550001;;;;;;;16;65.0752;94860.38;;;;
2019/07/18 00:21:21;;;;;;;10.55;9.299998;;;;;;;15.84;66.60547;94866.04;;;;
2019/07/18 00:22:23;;;;;;;10.55;9.299998;;;;;;;15.84;66.60547;94866.04;;;;
2019/07/18 00:23:24;;;;;;;10.55;9.299998;;;;;;;15.84;66.60547;94866.04;;;;
2019/07/18 00:24:25;;;;;;;10.55;9.299998;;;;;;;15.84;66.60547;94866.04;;;;
2019/07/18 00:25:26;;;;;;;10.55;9.299998;;;;;;;15.84;66.60547;94866.04;;;;
2019/07/18 00:26:27;;;;;;;10.55;9.299998;;;;;;;15.84;66.60547;94866.04;;;;
2019/07/18 00:27:28;;;;;;;10.55;9.299998;;;;;;;15.84;66.60547;94866.04;;;;
2019/07/18 00:28:29;;;;;;;10.55;9.299998;;;;;;;15.84;66.60547;94866.04;;;;
2019/07/18 00:29:30;;;;;;;10.55;9.299998;;;;;;;15.84;66.60547;94866.04;;;;
2019/07/18 00:30:31;;;;;;;10.55;9.299998;;;;;;;15.84;66.60547;94866.04;;;;
2019/07/18 00:31:44;;;;;;;10.55;9.299998;;;;;;;15.84;66.60547;94866.04;;;;
2019/07/18 00:32:45;;;;;;;11.8;10.15;;;;;;;15.74;67.70703;94858.46;;;;
2019/07/18 00:33:46;;;;;;;11.8;10.15;;;;;;;15.74;67.70703;94858.46;;;;
2019/07/18 00:34:47;;;;;;;11.8;10.15;;;;;;;15.74;67.70703;94858.46;;;;
2019/07/18 00:35:48;;;;;;;11.8;10.15;;;;;;;15.74;67.70703;94858.46;;;;
2019/07/18 00:36:50;;;;;;;11.8;10.15;;;;;;;15.74;67.70703;94858.46;;;;
2019/07/18 00:37:51;;;;;;;11.8;10.15;;;;;;;15.74;67.70703;94858.46;;;;
2019/07/18 00:38:52;;;;;;;11.8;10.15;;;;;;;15.74;67.70703;94858.46;;;;
2019/07/18 00:39:53;;;;;;;11.8;10.15;;;;;;;15.74;67.70703;94858.46;;;;
2019/07/18 00:40:54;;;;;;;11.8;10.15;;;;;;;15.74;67.70703;94858.46;;;;
2019/07/18 00:41:55;;;;;;;11.8;10.15;;;;;;;15.74;67.70703;94858.46;;;;
2019/07/18 00:42:56;;;;;;;11.85;10.65;;;;;;;15.51;69.10352;94863.01;;;;
2019/07/18 00:43:57;;;;;;;11.85;10.65;;;;;;;15.51;69.10352;94863.01;;;;
2019/07/18 00:44:58;;;;;;;11.85;10.65;;;;;;;15.51;69.10352;94863.01;;;;
2019/07/18 00:45:59;;;;;;;11.85;10.65;;;;;;;15.51;69.10352;94863.01;;;;
2019/07/18 00:47:00;;;;;;;11.85;10.65;;;;;;;15.51;69.10352;94863.01;;;;
2019/07/18 00:48:02;;;;;;;11.85;10.65;;;;;;;15.51;69.10352;94863.01;;;;
2019/07/18 00:49:03;;;;;;;11.85;10.65;;;;;;;15.51;69.10352;94863.01;;;;
2019/07/18 00:50:04;;;;;;;11.85;10.65;;;;;;;15.51;69.10352;94863.01;;;;
2019/07/18 00:51:05;;;;;;;11.85;10.65;;;;;;;15.51;69.10352;94863.01;;;;
2019/07/18 00:52:06;;;;;;;11.85;10.65;;;;;;;15.51;69.10352;94863.01;;;;
2019/07/18 00:53:08;;;;;;;11.3;10.1;;;;;;;15.42;70.6709;94859.77;;;;
2019/07/18 00:54:09;;;;;;;11.3;10.1;;;;;;;15.42;70.6709;94859.77;;;;
2019/07/18 00:55:10;;;;;;;11.3;10.1;;;;;;;15.42;70.6709;94859.77;;;;
2019/07/18 00:56:11;;;;;;;11.3;10.1;;;;;;;15.42;70.6709;94859.77;;;;
2019/07/18 00:57:12;;;;;;;11.3;10.1;;;;;;;15.42;70.6709;94859.77;;;;
2019/07/18 00:58:14;;;;;;;11.3;10.1;;;;;;;15.42;70.6709;94859.77;;;;
2019/07/18 00:59:15;;;;;;;11.3;10.1;;;;;;;15.42;70.6709;94859.77;;;;
2019/07/18 01:00:16;;;;;;;11.3;10.1;;;;;;;15.42;70.6709;94859.77;;;;
2019/07/18 01:01:17;;;;;;;11.3;10.1;;;;;;;15.42;70.6709;94859.77;;;;
2019/07/18 01:02:18;;;;;;;11.3;10.1;;;;;;;15.42;70.6709;94859.77;;;;
2019/07/18 01:03:20;;;;;;;11.3;10.1;;;;;;;15.42;70.6709;94859.77;;;;
2019/07/18 01:04:21;;;;;;;11.05;9.75;;;;;;;15.28;71.91504;94858.69;;;;
2019/07/18 01:05:22;;;;;;;11.05;9.75;;;;;;;15.28;71.91504;94858.69;;;;
2019/07/18 01:06:23;;;;;;;11.05;9.75;;;;;;;15.28;71.91504;94858.69;;;;
2019/07/18 01:07:25;;;;;;;11.05;9.75;;;;;;;15.28;71.91504;94858.69;;;;
2019/07/18 01:08:26;;;;;;;11.05;9.75;;;;;;;15.28;71.91504;94858.69;;;;
2019/07/18 01:09:27;;;;;;;11.05;9.75;;;;;;;15.28;71.91504;94858.69;;;;
2019/07/18 01:10:28;;;;;;;11.05;9.75;;;;;;;15.28;71.91504;94858.69;;;;
2019/07/18 01:11:29;;;;;;;11.05;9.75;;;;;;;15.28;71.91504;94858.69;;;;
2019/07/18 01:12:30;;;;;;;11.05;9.75;;;;;;;15.28;71.91504;94858.69;;;;
2019/07/18 01:13:31;;;;;;;11.05;9.75;;;;;;;15.28;71.91504;94858.69;;;;
2019/07/18 01:14:33;;;;;;;11.6;10.4;;;;;;;15.15;73.0957;94855.98;;;;
2019/07/18 01:15:34;;;;;;;11.6;10.4;;;;;;;15.15;73.0957;94855.98;;;;
2019/07/18 01:16:35;;;;;;;11.6;10.4;;;;;;;15.15;73.0957;94855.98;;;;
2019/07/18 01:17:37;;;;;;;11.6;10.4;;;;;;;15.15;73.0957;94855.98;;;;
2019/07/18 01:18:38;;;;;;;11.6;10.4;;;;;;;15.15;73.0957;94855.98;;;;
2019/07/18 01:19:39;;;;;;;11.6;10.4;;;;;;;15.15;73.0957;94855.98;;;;
2019/07/18 01:20:40;;;;;;;11.6;10.4;;;;;;;15.15;73.0957;94855.98;;;;
2019/07/18 01:21:41;;;;;;;11.6;10.4;;;;;;;15.15;73.0957;94855.98;;;;
2019/07/18 01:22:43;;;;;;;11.6;10.4;;;;;;;15.15;73.0957;94855.98;;;;
2019/07/18 01:23:44;;;;;;;11.6;10.4;;;;;;;15.15;73.0957;94855.98;;;;
2019/07/18 01:24:45;;;;;;;12.25;10.25;;;;;;;14.93;74.11816;94850.44;;;;
2019/07/18 01:25:47;;;;;;;12.25;10.25;;;;;;;14.93;74.11816;94850.44;;;;
2019/07/18 01:26:48;;;;;;;12.25;10.25;;;;;;;14.93;74.11816;94850.44;;;;
2019/07/18 01:27:49;;;;;;;12.25;10.25;;;;;;;14.93;74.11816;94850.44;;;;
2019/07/18 01:28:50;;;;;;;12.25;10.25;;;;;;;14.93;74.11816;94850.44;;;;
2019/07/18 01:29:51;;;;;;;12.25;10.25;;;;;;;14.93;74.11816;94850.44;;;;
2019/07/18 01:30:52;;;;;;;12.25;10.25;;;;;;;14.93;74.11816;94850.44;;;;
2019/07/18 01:31:53;;;;;;;12.25;10.25;;;;;;;14.93;74.11816;94850.44;;;;
2019/07/18 01:32:54;;;;;;;12.25;10.25;;;;;;;14.93;74.11816;94850.44;;;;
2019/07/18 01:33:56;;;;;;;12.25;10.25;;;;;;;14.93;74.11816;94850.44;;;;
2019/07/18 01:34:57;;;;;;;12.25;10.25;;;;;;;14.93;74.11816;94850.44;;;;
2019/07/18 01:35:58;;;;;;;11.85;10.7;;;;;;;14.79;75.25;94843.52;;;;
2019/07/18 01:36:59;;;;;;;11.85;10.7;;;;;;;14.79;75.25;94843.52;;;;
2019/07/18 01:38:00;;;;;;;11.85;10.7;;;;;;;14.79;75.25;94843.52;;;;
2019/07/18 01:39:01;;;;;;;11.85;10.7;;;;;;;14.79;75.25;94843.52;;;;
2019/07/18 01:40:03;;;;;;;11.85;10.7;;;;;;;14.79;75.25;94843.52;;;;
2019/07/18 01:41:05;;;;;;;11.85;10.7;;;;;;;14.79;75.25;94843.52;;;;
2019/07/18 01:42:07;;;;;;;11.85;10.7;;;;;;;14.79;75.25;94843.52;;;;
2019/07/18 01:43:08;;;;;;;11.85;10.7;;;;;;;14.79;75.25;94843.52;;;;
2019/07/18 01:44:09;;;;;;;11.85;10.7;;;;;;;14.79;75.25;94843.52;;;;
2019/07/18 01:45:10;;;;;;;11.85;10.7;;;;;;;14.79;75.25;94843.52;;;;
2019/07/18 01:46:12;;;;;;;11.85;10.6;;;;;;;14.66;76.11426;94838.08;;;;
2019/07/18 01:47:13;;;;;;;11.85;10.6;;;;;;;14.66;76.11426;94838.08;;;;
2019/07/18 01:48:14;;;;;;;11.85;10.6;;;;;;;14.66;76.11426;94838.08;;;;
2019/07/18 01:49:15;;;;;;;11.85;10.6;;;;;;;14.66;76.11426;94838.08;;;;
2019/07/18 01:50:16;;;;;;;11.85;10.6;;;;;;;14.66;76.11426;94838.08;;;;
2019/07/18 01:51:18;;;;;;;11.85;10.6;;;;;;;14.66;76.11426;94838.08;;;;
2019/07/18 01:52:20;;;;;;;11.85;10.6;;;;;;;14.66;76.11426;94838.08;;;;
2019/07/18 01:53:21;;;;;;;11.85;10.6;;;;;;;14.66;76.11426;94838.08;;;;
2019/07/18 01:54:22;;;;;;;11.85;10.6;;;;;;;14.66;76.11426;94838.08;;;;
2019/07/18 01:55:23;;;;;;;11.85;10.6;;;;;;;14.66;76.11426;94838.08;;;;
2019/07/18 01:56:25;;;;;;;11.85;10.6;;;;;;;14.66;76.11426;94838.08;;;;
2019/07/18 01:57:26;;;;;;;11.85;10.6;;;;;;;14.66;76.11426;94838.08;;;;
2019/07/18 01:58:27;;;;;;;11.85;10.6;;;;;;;14.66;76.11426;94838.08;;;;
2019/07/18 01:59:28;;;;;;;11.85;10.6;;;;;;;14.66;76.11426;94838.08;;;;
2019/07/18 02:00:29;;;;;;;11.85;10.6;;;;;;;14.66;76.11426;94838.08;;;;
2019/07/18 02:01:32;;;;;;;11.85;10.6;;;;;;;14.66;76.11426;94838.08;;;;
2019/07/18 02:02:33;;;;;;;11.85;10.6;;;;;;;14.66;76.11426;94838.08;;;;
2019/07/18 02:03:35;;;;;;;11.85;10.6;;;;;;;14.66;76.11426;94838.08;;;;
2019/07/18 02:04:36;;;;;;;11.85;10.6;;;;;;;14.66;76.11426;94838.08;;;;
2019/07/18 02:05:37;;;;;;;11.85;10.6;;;;;;;14.66;76.11426;94838.08;;;;
2019/07/18 02:06:38;;;;;;;11.85;10.6;;;;;;;14.66;76.11426;94838.08;;;;
2019/07/18 02:07:39;;;;;;;12.35;10.2;;;;;;;14.57;77.63086;94837.97;;;;
2019/07/18 02:08:40;;;;;;;12.35;10.2;;;;;;;14.57;77.63086;94837.97;;;;
2019/07/18 02:09:42;;;;;;;12.35;10.2;;;;;;;14.57;77.63086;94837.97;;;;
2019/07/18 02:10:43;;;;;;;12.35;10.2;;;;;;;14.57;77.63086;94837.97;;;;
2019/07/18 02:11:44;;;;;;;12.35;10.2;;;;;;;14.57;77.63086;94837.97;;;;
2019/07/18 02:12:45;;;;;;;12.35;10.2;;;;;;;14.57;77.63086;94837.97;;;;
2019/07/18 02:13:46;;;;;;;12.35;10.2;;;;;;;14.57;77.63086;94837.97;;;;
2019/07/18 02:14:48;;;;;;;12.35;10.2;;;;;;;14.57;77.63086;94837.97;;;;
2019/07/18 02:15:49;;;;;;;12.35;10.2;;;;;;;14.57;77.63086;94837.97;;;;
2019/07/18 02:16:51;;;;;;;12.35;10.2;;;;;;;14.57;77.63086;94837.97;;;;
2019/07/18 02:17:52;;;;;;;11.4;10.1;;;;;;;14.49;78.07031;94834.83;;;;
2019/07/18 02:18:53;;;;;;;11.4;10.1;;;;;;;14.49;78.07031;94834.83;;;;
2019/07/18 02:19:54;;;;;;;11.4;10.1;;;;;;;14.49;78.07031;94834.83;;;;
2019/07/18 02:20:55;;;;;;;11.4;10.1;;;;;;;14.49;78.07031;94834.83;;;;
2019/07/18 02:21:57;;;;;;;11.4;10.1;;;;;;;14.49;78.07031;94834.83;;;;
2019/07/18 02:22:58;;;;;;;11.4;10.1;;;;;;;14.49;78.07031;94834.83;;;;
2019/07/18 02:23:59;;;;;;;11.4;10.1;;;;;;;14.49;78.07031;94834.83;;;;
2019/07/18 02:25:00;;;;;;;11.4;10.1;;;;;;;14.49;78.07031;94834.83;;;;
2019/07/18 02:26:01;;;;;;;11.4;10.1;;;;;;;14.49;78.07031;94834.83;;;;
2019/07/18 02:27:02;;;;;;;11.4;10.1;;;;;;;14.49;78.07031;94834.83;;;;
2019/07/18 02:28:04;;;;;;;11.4;10.1;;;;;;;14.49;78.07031;94834.83;;;;
2019/07/18 02:29:05;;;;;;;11.4;10.1;;;;;;;14.49;78.07031;94834.83;;;;
2019/07/18 02:30:06;;;;;;;11.4;10.1;;;;;;;14.49;78.07031;94834.83;;;;
2019/07/18 02:31:08;;;;;;;11.4;10.1;;;;;;;14.49;78.07031;94834.83;;;;
2019/07/18 02:32:09;;;;;;;11.4;10.1;;;;;;;14.49;78.07031;94834.83;;;;
2019/07/18 02:33:11;;;;;;;11.4;10.1;;;;;;;14.49;78.07031;94834.83;;;;
2019/07/18 02:34:12;;;;;;;11.4;10.1;;;;;;;14.49;78.07031;94834.83;;;;
2019/07/18 02:35:13;;;;;;;11.4;10.1;;;;;;;14.49;78.07031;94834.83;;;;
2019/07/18 02:36:15;;;;;;;11.4;10.1;;;;;;;14.49;78.07031;94834.83;;;;
2019/07/18 02:37:16;;;;;;;11.4;10.1;;;;;;;14.49;78.07031;94834.83;;;;
2019/07/18 02:38:17;;;;;;;11.4;10.1;;;;;;;14.49;78.07031;94834.83;;;;
2019/07/18 02:39:18;;;;;;;11.95;10.4;;;;;;;14.34;79.80078;94837.52;;;;
2019/07/18 02:40:20;;;;;;;11.95;10.4;;;;;;;14.34;79.80078;94837.52;;;;
2019/07/18 02:41:29;;;;;;;11.95;10.4;;;;;;;14.34;79.80078;94837.52;;;;
2019/07/18 02:42:30;;;;;;;11.95;10.4;;;;;;;14.34;79.80078;94837.52;;;;
2019/07/18 02:43:31;;;;;;;11.95;10.4;;;;;;;14.34;79.80078;94837.52;;;;
2019/07/18 02:44:33;;;;;;;11.95;10.4;;;;;;;14.34;79.80078;94837.52;;;;
2019/07/18 02:45:34;;;;;;;11.95;10.4;;;;;;;14.34;79.80078;94837.52;;;;
2019/07/18 02:46:51;;;;;;;11.95;10.4;;;;;;;14.34;79.80078;94837.52;;;;
2019/07/18 02:47:52;;;;;;;11.95;10.4;;;;;;;14.34;79.80078;94837.52;;;;
2019/07/18 02:48:54;;;;;;;11.95;10.4;;;;;;;14.34;79.80078;94837.52;;;;
2019/07/18 02:49:55;;;;;;;11.8;10.65;;;;;;;14.26;80.49609;94833.14;;;;
2019/07/18 02:50:56;;;;;;;11.8;10.65;;;;;;;14.26;80.49609;94833.14;;;;
2019/07/18 02:51:57;;;;;;;11.8;10.65;;;;;;;14.26;80.49609;94833.14;;;;
2019/07/18 02:52:58;;;;;;;11.8;10.65;;;;;;;14.26;80.49609;94833.14;;;;
2019/07/18 02:53:59;;;;;;;11.8;10.65;;;;;;;14.26;80.49609;94833.14;;;;
2019/07/18 02:55:00;;;;;;;11.8;10.65;;;;;;;14.26;80.49609;94833.14;;;;
2019/07/18 02:56:01;;;;;;;11.8;10.65;;;;;;;14.26;80.49609;94833.14;;;;
2019/07/18 02:57:03;;;;;;;11.8;10.65;;;;;;;14.26;80.49609;94833.14;;;;
2019/07/18 02:58:04;;;;;;;11.8;10.65;;;;;;;14.26;80.49609;94833.14;;;;
2019/07/18 02:59:05;;;;;;;11.8;10.65;;;;;;;14.26;80.49609;94833.14;;;;
2019/07/18 03:00:06;;;;;;;11.8;10.65;;;;;;;14.26;80.49609;94833.14;;;;
2019/07/18 03:01:07;;;;;;;12.45;10.25;;;;;;;14.23;80.97461;94832.33;;;;
2019/07/18 03:02:09;;;;;;;12.45;10.25;;;;;;;14.23;80.97461;94832.33;;;;
2019/07/18 03:03:10;;;;;;;12.45;10.25;;;;;;;14.23;80.97461;94832.33;;;;
2019/07/18 03:04:11;;;;;;;12.45;10.25;;;;;;;14.23;80.97461;94832.33;;;;
2019/07/18 03:05:12;;;;;;;12.45;10.25;;;;;;;14.23;80.97461;94832.33;;;;
2019/07/18 03:06:13;;;;;;;12.45;10.25;;;;;;;14.23;80.97461;94832.33;;;;
2019/07/18 03:07:14;;;;;;;12.45;10.25;;;;;;;14.23;80.97461;94832.33;;;;
2019/07/18 03:08:15;;;;;;;12.45;10.25;;;;;;;14.23;80.97461;94832.33;;;;
2019/07/18 03:09:16;;;;;;;12.45;10.25;;;;;;;14.23;80.97461;94832.33;;;;
2019/07/18 03:10:18;;;;;;;12.45;10.25;;;;;;;14.23;80.97461;94832.33;;;;
2019/07/18 03:11:19;;;;;;;12.45;10.25;;;;;;;14.23;80.97461;94832.33;;;;
2019/07/18 03:12:20;;;;;;;12.45;10.25;;;;;;;14.23;80.97461;94832.33;;;;
2019/07/18 03:13:21;;;;;;;12.45;10.25;;;;;;;14.23;80.97461;94832.33;;;;
2019/07/18 03:14:22;;;;;;;12.45;10.25;;;;;;;14.23;80.97461;94832.33;;;;
2019/07/18 03:15:23;;;;;;;12.45;10.25;;;;;;;14.23;80.97461;94832.33;;;;
2019/07/18 03:16:25;;;;;;;12.45;10.25;;;;;;;14.23;80.97461;94832.33;;;;
2019/07/18 03:17:27;;;;;;;12.45;10.25;;;;;;;14.23;80.97461;94832.33;;;;
2019/07/18 03:18:28;;;;;;;12.45;10.25;;;;;;;14.23;80.97461;94832.33;;;;
2019/07/18 03:19:29;;;;;;;12.45;10.25;;;;;;;14.23;80.97461;94832.33;;;;
2019/07/18 03:20:30;;;;;;;12.45;10.25;;;;;;;14.23;80.97461;94832.33;;;;
2019/07/18 03:21:31;;;;;;;12.45;10.25;;;;;;;14.23;80.97461;94832.33;;;;
2019/07/18 03:22:32;;;;;;;12.45;10.25;;;;;;;14.23;80.97461;94832.33;;;;
2019/07/18 03:23:33;;;;;;;12.45;10.25;;;;;;;14.23;80.97461;94832.33;;;;
2019/07/18 03:24:34;;;;;;;12.45;10.25;;;;;;;14.23;80.97461;94832.33;;;;
2019/07/18 03:25:35;;;;;;;12.45;10.25;;;;;;;14.23;80.97461;94832.33;;;;
2019/07/18 03:26:36;;;;;;;12.45;10.25;;;;;;;14.23;80.97461;94832.33;;;;
2019/07/18 03:27:38;;;;;;;12.45;10.25;;;;;;;14.23;80.97461;94832.33;;;;
2019/07/18 03:28:39;;;;;;;12.45;10.25;;;;;;;14.23;80.97461;94832.33;;;;
2019/07/18 03:29:40;;;;;;;12.45;10.25;;;;;;;14.23;80.97461;94832.33;;;;
2019/07/18 03:30:41;;;;;;;12.45;10.25;;;;;;;14.23;80.97461;94832.33;;;;
2019/07/18 03:31:42;;;;;;;12.45;10.25;;;;;;;14.23;80.97461;94832.33;;;;
2019/07/18 03:32:43;;;;;;;12.45;10.25;;;;;;;14.23;80.97461;94832.33;;;;
2019/07/18 03:33:44;;;;;;;12.45;10.25;;;;;;;14.23;80.97461;94832.33;;;;
2019/07/18 03:34:45;;;;;;;12.45;10.25;;;;;;;14.23;80.97461;94832.33;;;;
2019/07/18 03:35:46;;;;;;;12.45;10.25;;;;;;;14.23;80.97461;94832.33;;;;
2019/07/18 03:36:47;;;;;;;12.45;10.25;;;;;;;14.23;80.97461;94832.33;;;;
2019/07/18 03:37:49;;;;;;;12.45;10.25;;;;;;;14.23;80.97461;94832.33;;;;
2019/07/18 03:38:50;;;;;;;12.45;10.25;;;;;;;14.23;80.97461;94832.33;;;;
2019/07/18 03:39:51;;;;;;;12.45;10.25;;;;;;;14.23;80.97461;94832.33;;;;
2019/07/18 03:40:52;;;;;;;12.45;10.25;;;;;;;14.23;80.97461;94832.33;;;;
2019/07/18 03:41:53;;;;;;;12.45;10.25;;;;;;;14.23;80.97461;94832.33;;;;
2019/07/18 03:42:54;;;;;;;12.45;10.25;;;;;;;14.23;80.97461;94832.33;;;;
2019/07/18 03:43:55;;;;;;;12.45;10.25;;;;;;;14.23;80.97461;94832.33;;;;
2019/07/18 03:44:57;;;;;;;12.45;10.25;;;;;;;14.23;80.97461;94832.33;;;;
2019/07/18 04:04:59;;;;;;;12.95;10.95;;;;;;;14;85.90137;94845.43;;;;
2019/07/18 04:06:00;;;;;;;12.95;10.95;;;;;;;14;85.90137;94845.43;;;;
2019/07/18 04:07:01;;;;;;;12.95;10.95;;;;;;;14;85.90137;94845.43;;;;
2019/07/18 04:08:02;;;;;;;12.95;10.95;;;;;;;14;85.90137;94845.43;;;;
2019/07/18 04:09:03;;;;;;;12.95;10.95;;;;;;;14;85.90137;94845.43;;;;
2019/07/18 04:10:04;;;;;;;12.95;10.95;;;;;;;14;85.90137;94845.43;;;;
2019/07/18 04:11:06;;;;;;;12.95;10.95;;;;;;;14;85.90137;94845.43;;;;
2019/07/18 04:12:07;;;;;;;12.95;10.95;;;;;;;14;85.90137;94845.43;;;;
2019/07/18 04:13:08;;;;;;;12.95;10.95;;;;;;;14;85.90137;94845.43;;;;
2019/07/18 04:14:09;;;;;;;12.95;10.95;;;;;;;14;85.90137;94845.43;;;;
2019/07/18 04:15:10;;;;;;;11.5;10.2;;;;;;;14.06;86.01172;94849.68;;;;
2019/07/18 04:16:12;;;;;;;11.5;10.2;;;;;;;14.06;86.01172;94849.68;;;;
2019/07/18 04:17:13;;;;;;;11.5;10.2;;;;;;;14.06;86.01172;94849.68;;;;
2019/07/18 04:18:14;;;;;;;11.5;10.2;;;;;;;14.06;86.01172;94849.68;;;;
2019/07/18 04:19:15;;;;;;;11.5;10.2;;;;;;;14.06;86.01172;94849.68;;;;
2019/07/18 04:20:16;;;;;;;11.5;10.2;;;;;;;14.06;86.01172;94849.68;;;;
2019/07/18 04:21:17;;;;;;;11.5;10.2;;;;;;;14.06;86.01172;94849.68;;;;
2019/07/18 04:22:18;;;;;;;11.5;10.2;;;;;;;14.06;86.01172;94849.68;;;;
2019/07/18 04:23:19;;;;;;;11.5;10.2;;;;;;;14.06;86.01172;94849.68;;;;
2019/07/18 04:24:20;;;;;;;11.5;10.2;;;;;;;14.06;86.01172;94849.68;;;;
2019/07/18 04:25:21;;;;;;;11.5;10.2;;;;;;;14.06;86.01172;94849.68;;;;
2019/07/18 04:26:22;;;;;;;12.85;10.3;;;;;;;14.24;86.43359;94855.55;;;;
2019/07/18 04:27:23;;;;;;;12.85;10.3;;;;;;;14.24;86.43359;94855.55;;;;
2019/07/18 04:28:25;;;;;;;12.85;10.3;;;;;;;14.24;86.43359;94855.55;;;;
2019/07/18 04:29:26;;;;;;;12.85;10.3;;;;;;;14.24;86.43359;94855.55;;;;
2019/07/18 04:30:27;;;;;;;12.85;10.3;;;;;;;14.24;86.43359;94855.55;;;;
2019/07/18 04:31:28;;;;;;;12.85;10.3;;;;;;;14.24;86.43359;94855.55;;;;
2019/07/18 04:32:29;;;;;;;12.85;10.3;;;;;;;14.24;86.43359;94855.55;;;;
2019/07/18 04:33:30;;;;;;;12.85;10.3;;;;;;;14.24;86.43359;94855.55;;;;
2019/07/18 04:34:31;;;;;;;12.85;10.3;;;;;;;14.24;86.43359;94855.55;;;;
2019/07/18 04:35:32;;;;;;;12.85;10.3;;;;;;;14.24;86.43359;94855.55;;;;
2019/07/18 04:36:33;;;;;;;11.1;10;;;;;;;14.42;86.36035;94858.73;;;;
2019/07/18 04:37:35;;;;;;;11.1;10;;;;;;;14.42;86.36035;94858.73;;;;
2019/07/18 04:38:36;;;;;;;11.1;10;;;;;;;14.42;86.36035;94858.73;;;;
2019/07/18 04:39:37;;;;;;;11.1;10;;;;;;;14.42;86.36035;94858.73;;;;
2019/07/18 04:40:38;;;;;;;11.1;10;;;;;;;14.42;86.36035;94858.73;;;;
2019/07/18 04:41:39;;;;;;;11.1;10;;;;;;;14.42;86.36035;94858.73;;;;
2019/07/18 04:42:40;;;;;;;11.1;10;;;;;;;14.42;86.36035;94858.73;;;;
2019/07/18 04:43:41;;;;;;;11.1;10;;;;;;;14.42;86.36035;94858.73;;;;
2019/07/18 04:44:42;;;;;;;11.1;10;;;;;;;14.42;86.36035;94858.73;;;;
2019/07/18 04:45:43;;;;;;;11.1;10;;;;;;;14.42;86.36035;94858.73;;;;
2019/07/18 04:46:44;;;;;;;11.1;10;;;;;;;14.42;86.36035;94858.73;;;;
2019/07/18 04:47:45;;;;;;;11.4;10.2;;;;;;;14.72;86.45215;94863.76;;;;
2019/07/18 04:48:47;;;;;;;11.4;10.2;;;;;;;14.72;86.45215;94863.76;;;;
2019/07/18 04:49:48;;;;;;;11.4;10.2;;;;;;;14.72;86.45215;94863.76;;;;
2019/07/18 04:50:49;;;;;;;11.4;10.2;;;;;;;14.72;86.45215;94863.76;;;;
2019/07/18 04:51:50;;;;;;;11.4;10.2;;;;;;;14.72;86.45215;94863.76;;;;
2019/07/18 04:52:51;;;;;;;11.4;10.2;;;;;;;14.72;86.45215;94863.76;;;;
2019/07/18 04:53:52;;;;;;;11.4;10.2;;;;;;;14.72;86.45215;94863.76;;;;
2019/07/18 04:54:53;;;;;;;11.4;10.2;;;;;;;14.72;86.45215;94863.76;;;;
2019/07/18 04:55:54;;;;;;;11.4;10.2;;;;;;;14.72;86.45215;94863.76;;;;
2019/07/18 04:56:55;;;;;;;11.4;10.2;;;;;;;14.72;86.45215;94863.76;;;;
2019/07/18 04:57:56;;;;;;;11.5;10.35;;;;;;;15;86.26855;94866.49;;;;
2019/07/18 04:58:57;;;;;;;11.5;10.35;;;;;;;15;86.26855;94866.49;;;;
2019/07/18 04:59:58;;;;;;;11.5;10.35;;;;;;;15;86.26855;94866.49;;;;
2019/07/18 05:01:00;;;;;;;11.5;10.35;;;;;;;15;86.26855;94866.49;;;;
2019/07/18 05:02:01;;;;;;;11.5;10.35;;;;;;;15;86.26855;94866.49;;;;
2019/07/18 05:03:02;;;;;;;11.5;10.35;;;;;;;15;86.26855;94866.49;;;;
2019/07/18 05:04:03;;;;;;;11.5;10.35;;;;;;;15;86.26855;94866.49;;;;
2019/07/18 05:05:04;;;;;;;11.5;10.35;;;;;;;15;86.26855;94866.49;;;;
2019/07/18 05:06:05;;;;;;;11.5;10.35;;;;;;;15;86.26855;94866.49;;;;
2019/07/18 05:07:06;;;;;;;11.5;10.35;;;;;;;15;86.26855;94866.49;;;;
2019/07/18 05:08:07;;;;;;;14;10.15;;;;;;;15.44;85.97949;94865.63;;;;
2019/07/18 05:09:08;;;;;;;14;10.15;;;;;;;15.44;85.97949;94865.63;;;;
2019/07/18 05:10:10;;;;;;;14;10.15;;;;;;;15.44;85.97949;94865.63;;;;
2019/07/18 05:11:11;;;;;;;14;10.15;;;;;;;15.44;85.97949;94865.63;;;;
2019/07/18 05:12:12;;;;;;;14;10.15;;;;;;;15.44;85.97949;94865.63;;;;
2019/07/18 05:13:13;;;;;;;14;10.15;;;;;;;15.44;85.97949;94865.63;;;;
2019/07/18 05:14:14;;;;;;;14;10.15;;;;;;;15.44;85.97949;94865.63;;;;
2019/07/18 05:15:16;;;;;;;14;10.15;;;;;;;15.44;85.97949;94865.63;;;;
2019/07/18 05:16:17;;;;;;;14;10.15;;;;;;;15.44;85.97949;94865.63;;;;
2019/07/18 05:17:18;;;;;;;14;10.15;;;;;;;15.44;85.97949;94865.63;;;;
2019/07/18 05:18:19;;;;;;;14;10.15;;;;;;;15.44;85.97949;94865.63;;;;
2019/07/18 05:19:20;;;;;;;12.4;9.55;;;;;;;15.86;85.3584;94865.76;;;;
2019/07/18 05:20:21;;;;;;;12.4;9.55;;;;;;;15.86;85.3584;94865.76;;;;
2019/07/18 05:21:23;;;;;;;12.4;9.55;;;;;;;15.86;85.3584;94865.76;;;;
2019/07/18 05:22:24;;;;;;;12.4;9.55;;;;;;;15.86;85.3584;94865.76;;;;
2019/07/18 05:23:25;;;;;;;12.4;9.55;;;;;;;15.86;85.3584;94865.76;;;;
2019/07/18 05:24:26;;;;;;;12.4;9.55;;;;;;;15.86;85.3584;94865.76;;;;
2019/07/18 05:25:27;;;;;;;12.4;9.55;;;;;;;15.86;85.3584;94865.76;;;;
2019/07/18 05:26:28;;;;;;;12.4;9.55;;;;;;;15.86;85.3584;94865.76;;;;
2019/07/18 05:27:29;;;;;;;12.4;9.55;;;;;;;15.86;85.3584;94865.76;;;;
2019/07/18 05:28:30;;;;;;;12.4;9.55;;;;;;;15.86;85.3584;94865.76;;;;
2019/07/18 05:29:31;;;;;;;10.65;9.65;;;;;;;16.31;84.9248;94866.49;;;;
2019/07/18 05:30:33;;;;;;;10.65;9.65;;;;;;;16.31;84.9248;94866.49;;;;
2019/07/18 05:31:38;;;;;;;10.65;9.65;;;;;;;16.31;84.9248;94866.49;;;;
2019/07/18 05:32:39;;;;;;;10.65;9.65;;;;;;;16.31;84.9248;94866.49;;;;
2019/07/18 05:33:40;;;;;;;10.65;9.65;;;;;;;16.31;84.9248;94866.49;;;;
2019/07/18 05:34:41;;;;;;;10.65;9.65;;;;;;;16.31;84.9248;94866.49;;;;
2019/07/18 05:35:42;;;;;;;10.65;9.65;;;;;;;16.31;84.9248;94866.49;;;;
2019/07/18 05:36:44;;;;;;;10.65;9.65;;;;;;;16.31;84.9248;94866.49;;;;
2019/07/18 05:37:45;;;;;;;10.65;9.65;;;;;;;16.31;84.9248;94866.49;;;;
2019/07/18 05:38:46;;;;;;;10.65;9.65;;;;;;;16.31;84.9248;94866.49;;;;
2019/07/18 05:39:47;;;;;;;10.65;9.65;;;;;;;16.31;84.9248;94866.49;;;;
2019/07/18 05:40:48;;;;;;;10.95;9.700001;;;;;;;16.86;84.04688;94871.04;;;;
2019/07/18 05:41:49;;;;;;;10.95;9.700001;;;;;;;16.86;84.04688;94871.04;;;;
2019/07/18 05:42:50;;;;;;;10.95;9.700001;;;;;;;16.86;84.04688;94871.04;;;;
2019/07/18 05:43:52;;;;;;;10.95;9.700001;;;;;;;16.86;84.04688;94871.04;;;;
2019/07/18 05:44:53;;;;;;;10.95;9.700001;;;;;;;16.86;84.04688;94871.04;;;;
2019/07/18 05:45:54;;;;;;;10.95;9.700001;;;;;;;16.86;84.04688;94871.04;;;;
2019/07/18 05:46:55;;;;;;;10.95;9.700001;;;;;;;16.86;84.04688;94871.04;;;;
2019/07/18 05:47:56;;;;;;;10.95;9.700001;;;;;;;16.86;84.04688;94871.04;;;;
2019/07/18 05:48:58;;;;;;;10.95;9.700001;;;;;;;16.86;84.04688;94871.04;;;;
2019/07/18 05:49:59;;;;;;;10.95;9.700001;;;;;;;16.86;84.04688;94871.04;;;;
2019/07/18 05:51:00;;;;;;;12.15;9.35;;;;;;;17.46;83.0332;94876.51;;;;
2019/07/18 05:52:01;;;;;;;12.15;9.35;;;;;;;17.46;83.0332;94876.51;;;;
2019/07/18 05:53:02;;;;;;;12.15;9.35;;;;;;;17.46;83.0332;94876.51;;;;
2019/07/18 05:54:04;;;;;;;12.15;9.35;;;;;;;17.46;83.0332;94876.51;;;;
2019/07/18 05:55:05;;;;;;;12.15;9.35;;;;;;;17.46;83.0332;94876.51;;;;
2019/07/18 05:56:07;;;;;;;12.15;9.35;;;;;;;17.46;83.0332;94876.51;;;;
2019/07/18 05:57:08;;;;;;;12.15;9.35;;;;;;;17.46;83.0332;94876.51;;;;
2019/07/18 05:58:09;;;;;;;12.15;9.35;;;;;;;17.46;83.0332;94876.51;;;;
2019/07/18 05:59:10;;;;;;;12.15;9.35;;;;;;;17.46;83.0332;94876.51;;;;
2019/07/18 06:00:11;;;;;;;12.15;9.35;;;;;;;17.46;83.0332;94876.51;;;;
2019/07/18 06:01:13;;;;;;;10.15;8.799998;;;;;;;18.12;81.84277;94886.99;;;;
2019/07/18 06:02:14;;;;;;;10.15;8.799998;;;;;;;18.12;81.84277;94886.99;;;;